Time;durP1;ratioP1;P1;durP2;ratioP2;P2;SDS_P1;SDS_P2;PMS_P1;PMS_P2;Temp;Humidity;BMP_temperature;BMP_pressure;BME280_temperature;BME280_humidity;BME280_pressure;Samples;Min_cycle;Max_cycle;Signal;HPM_P1;HPM_P2
2022/02/08 00:00:49;;;;;;;9.77;3.60;;;5.30;99.90;;;;;;5032930;28;20884;-69
2022/02/08 00:03:17;;;;;;;9.40;3.80;;;5.30;99.90;;;;;;5056247;28;20452;-71
2022/02/08 00:05:48;;;;;;;6.87;3.43;;;5.30;99.90;;;;;;5073097;28;20955;-70
2022/02/08 00:08:14;;;;;;;9.77;3.27;;;5.40;99.90;;;;;;5072126;28;20440;-71
2022/02/08 00:10:40;;;;;;;6.77;2.80;;;5.30;99.90;;;;;;5072852;28;20472;-72
2022/02/08 00:13:05;;;;;;;5.23;3.00;;;5.30;99.90;;;;;;5075018;28;20190;-69
2022/02/08 00:15:31;;;;;;;10.87;3.67;;;5.30;99.90;;;;;;5072287;28;20437;-70
2022/02/08 00:17:57;;;;;;;6.00;3.27;;;5.30;99.90;;;;;;5070216;28;21017;-72
2022/02/08 00:20:22;;;;;;;4.90;3.20;;;5.40;99.90;;;;;;5071512;28;20635;-69
2022/02/08 00:22:48;;;;;;;7.33;2.40;;;5.40;99.90;;;;;;5072411;28;20197;-70
2022/02/08 00:25:16;;;;;;;4.53;2.50;;;5.40;99.90;;;;;;5077187;28;20281;-74
2022/02/08 00:27:42;;;;;;;9.13;3.30;;;5.40;99.90;;;;;;5074832;28;20329;-73
2022/02/08 00:30:08;;;;;;;10.40;3.13;;;5.40;99.90;;;;;;5073742;28;20540;-73
2022/02/08 00:32:34;;;;;;;9.17;3.40;;;5.40;99.90;;;;;;5069695;28;20502;-72
2022/02/08 00:35:00;;;;;;;6.33;3.20;;;5.40;99.90;;;;;;5073137;28;20520;-73
2022/02/08 00:37:25;;;;;;;4.60;2.30;;;5.40;99.90;;;;;;5070854;28;20191;-71
2022/02/08 00:39:51;;;;;;;9.13;3.20;;;5.40;99.90;;;;;;5075566;28;20210;-70
2022/02/08 00:42:18;;;;;;;4.23;2.77;;;5.40;99.90;;;;;;5073349;28;20190;-71
2022/02/08 00:44:50;;;;;;;8.13;3.00;;;5.50;99.90;;;;;;5071273;28;20347;-70
2022/02/08 00:47:27;;;;;;;10.43;2.97;;;5.50;99.90;;;;;;5071730;28;20436;-70
2022/02/08 00:49:53;;;;;;;6.13;2.87;;;5.50;99.90;;;;;;5071825;28;20457;-69
2022/02/08 00:52:19;;;;;;;8.60;3.00;;;5.60;99.90;;;;;;5071867;28;20444;-71
2022/02/08 00:54:49;;;;;;;8.23;3.03;;;5.50;99.90;;;;;;5072159;28;20731;-70
2022/02/08 00:57:15;;;;;;;5.33;2.67;;;5.50;99.90;;;;;;5071455;28;20740;-70
2022/02/08 00:59:42;;;;;;;4.00;3.10;;;5.60;99.90;;;;;;5070148;28;20525;-69
2022/02/08 01:02:08;;;;;;;5.73;3.10;;;5.50;99.90;;;;;;5073046;28;20444;-69
2022/02/08 01:04:35;;;;;;;8.73;2.93;;;5.40;99.90;;;;;;5072807;28;20440;-70
2022/02/08 01:07:02;;;;;;;4.30;2.33;;;5.40;99.90;;;;;;5074364;28;20494;-69
2022/02/08 01:12:03;;;;;;;7.97;3.53;;;5.30;99.90;;;;;;5077874;28;20979;-69
2022/02/08 01:14:31;;;;;;;9.03;4.17;;;5.40;99.90;;;;;;5078268;28;20835;-69
2022/02/08 01:16:57;;;;;;;4.60;2.60;;;5.40;99.90;;;;;;5076627;28;20482;-69
2022/02/08 01:19:23;;;;;;;6.03;2.73;;;5.30;99.90;;;;;;5077736;28;20432;-71
2022/02/08 01:21:49;;;;;;;5.50;3.33;;;5.20;99.90;;;;;;5076900;28;20213;-71
2022/02/08 01:24:15;;;;;;;10.40;4.00;;;5.30;99.90;;;;;;5073766;28;20432;-70
2022/02/08 01:26:48;;;;;;;8.27;3.37;;;5.20;99.90;;;;;;5077673;28;20239;-70
2022/02/08 01:29:59;;;;;;;6.87;3.00;;;5.20;99.90;;;;;;5074247;28;20617;-70
2022/02/08 01:32:18;;;;;;;5.50;3.00;;;5.20;99.90;;;;;;5066500;28;20496;-70
2022/02/08 01:37:28;;;;;;;5.60;3.57;;;5.10;99.90;;;;;;5073412;28;20433;-70
2022/02/08 01:40:07;;;;;;;11.97;3.70;;;5.10;99.90;;;;;;5076287;28;20461;-70
2022/02/08 01:47:49;;;;;;;12.87;4.10;;;5.00;99.90;;;;;;5074914;28;20452;-70
2022/02/08 01:50:17;;;;;;;10.90;3.60;;;5.00;99.90;;;;;;5075590;28;20471;-70
2022/02/08 01:52:44;;;;;;;10.63;2.97;;;5.00;99.90;;;;;;5076006;28;20428;-71
2022/02/08 01:55:13;;;;;;;6.10;3.63;;;4.90;99.90;;;;;;5079112;28;20621;-70
2022/02/08 01:57:39;;;;;;;11.37;4.07;;;4.90;99.90;;;;;;5076609;28;20458;-71
2022/02/08 02:00:10;;;;;;;7.60;2.83;;;4.90;99.90;;;;;;5078101;28;20486;-70
2022/02/08 02:02:36;;;;;;;7.63;3.73;;;4.90;99.90;;;;;;5079431;28;20432;-70
2022/02/08 02:05:03;;;;;;;7.97;3.60;;;4.80;99.90;;;;;;5080034;28;20416;-70
2022/02/08 02:07:29;;;;;;;7.20;2.93;;;4.90;99.90;;;;;;5081551;28;20261;-71
2022/02/08 02:09:55;;;;;;;4.70;3.23;;;4.90;99.90;;;;;;5078701;28;20465;-70
2022/02/08 02:12:20;;;;;;;4.73;3.17;;;4.90;99.90;;;;;;5082689;28;20434;-70
2022/02/08 02:14:46;;;;;;;11.63;3.90;;;4.90;99.90;;;;;;5079325;28;20194;-71
2022/02/08 02:17:12;;;;;;;3.00;2.60;;;4.90;99.90;;;;;;5081071;28;20201;-70
2022/02/08 02:19:39;;;;;;;5.40;3.10;;;4.80;99.90;;;;;;5079526;28;20202;-70
2022/02/08 02:22:06;;;;;;;8.17;3.87;;;4.90;99.90;;;;;;5077633;28;20205;-70
2022/02/08 02:24:32;;;;;;;7.97;3.37;;;4.80;99.90;;;;;;5073948;28;20440;-70
2022/02/08 02:26:59;;;;;;;7.30;3.50;;;4.80;99.90;;;;;;5077155;28;20426;-70
2022/02/08 02:29:27;;;;;;;8.73;3.37;;;4.80;99.90;;;;;;5080944;28;20430;-70
2022/02/08 02:31:53;;;;;;;8.57;3.37;;;4.90;99.90;;;;;;5079030;28;20464;-70
2022/02/08 02:34:20;;;;;;;7.90;2.80;;;4.90;99.90;;;;;;5078772;28;20501;-70
2022/02/08 02:36:46;;;;;;;11.47;3.20;;;4.90;99.90;;;;;;5077313;28;20436;-70
2022/02/08 02:39:13;;;;;;;8.17;2.93;;;4.90;99.90;;;;;;5077271;28;20429;-70
2022/02/08 02:41:41;;;;;;;12.03;3.80;;;4.90;99.90;;;;;;5080027;28;20463;-70
2022/02/08 02:44:09;;;;;;;6.70;2.83;;;4.90;99.90;;;;;;5078212;28;20433;-70
2022/02/08 02:46:36;;;;;;;6.40;3.00;;;5.00;99.90;;;;;;5079006;28;20459;-70
2022/02/08 02:49:02;;;;;;;5.50;2.77;;;5.00;99.90;;;;;;5094062;28;20548;-70
2022/02/08 02:51:29;;;;;;;7.20;2.70;;;5.00;99.90;;;;;;5082035;28;20488;-70
2022/02/08 02:53:55;;;;;;;6.33;2.97;;;5.10;99.90;;;;;;5076906;28;20476;-70
2022/02/08 02:56:20;;;;;;;13.13;2.50;;;5.10;99.90;;;;;;5077729;28;20452;-69
2022/02/08 02:58:46;;;;;;;9.20;2.80;;;5.20;99.90;;;;;;5077831;28;20198;-69
2022/02/08 03:17:33;;;;;;;8.77;3.00;;;5.10;99.90;;;;;;5080012;28;20502;-68
2022/02/08 03:19:51;;;;;;;7.67;2.60;;;5.20;99.90;;;;;;5077316;28;20490;-69
2022/02/08 03:22:16;;;;;;;5.33;2.20;;;5.30;99.90;;;;;;5080486;28;20677;-71
2022/02/08 03:24:42;;;;;;;3.63;2.23;;;5.30;99.90;;;;;;5080538;28;20194;-69
2022/02/08 03:27:07;;;;;;;9.50;4.30;;;5.30;99.90;;;;;;5079200;28;20190;-68
2022/02/08 03:29:33;;;;;;;6.47;2.50;;;5.30;99.90;;;;;;5077663;28;20195;-68
2022/02/08 03:31:58;;;;;;;10.73;3.03;;;5.40;99.90;;;;;;5080084;28;20217;-68
2022/02/08 03:34:24;;;;;;;4.30;2.60;;;5.40;99.90;;;;;;5079246;28;20219;-68
2022/02/08 03:36:50;;;;;;;4.37;2.37;;;5.40;99.90;;;;;;5075969;28;20179;-70
2022/02/08 03:39:24;;;;;;;11.63;3.03;;;5.40;99.90;;;;;;5077274;28;20190;-69
2022/02/08 03:41:54;;;;;;;7.57;2.50;;;5.50;99.90;;;;;;5077065;28;20538;-69
2022/02/08 03:44:29;;;;;;;10.30;2.80;;;5.40;99.90;;;;;;5077185;28;20472;-69
2022/02/08 03:46:55;;;;;;;4.90;2.73;;;5.50;99.90;;;;;;5076883;28;20910;-70
2022/02/08 03:49:21;;;;;;;5.87;2.47;;;5.60;99.90;;;;;;5077982;28;20474;-70
2022/02/08 03:51:52;;;;;;;6.73;3.20;;;5.60;99.90;;;;;;5077560;28;20472;-69
2022/02/08 03:54:19;;;;;;;3.57;2.77;;;5.60;99.90;;;;;;5077004;28;20190;-69
2022/02/08 03:56:45;;;;;;;9.83;2.80;;;5.60;99.90;;;;;;5075021;28;20436;-69
2022/02/08 03:59:13;;;;;;;10.50;2.50;;;5.60;99.90;;;;;;5079157;28;21661;-69
2022/02/08 04:07:26;;;;;;;8.10;3.30;;;5.70;99.90;;;;;;5035367;28;20817;-69
2022/02/08 04:10:00;;;;;;;6.87;3.80;;;5.70;99.90;;;;;;5076749;28;20525;-69
2022/02/08 04:12:38;;;;;;;7.87;2.67;;;5.70;99.90;;;;;;5077960;28;20512;-70
2022/02/08 04:17:58;;;;;;;9.37;2.80;;;5.70;99.90;;;;;;5076618;28;20804;-69
2022/02/08 04:40:19;;;;;;;6.27;2.67;;;5.70;99.90;;;;;;5056883;28;20449;-70
2022/02/08 04:45:26;;;;;;;9.30;2.00;;;5.80;99.90;;;;;;5077399;28;20429;-69
2022/02/08 04:50:20;;;;;;;4.80;2.70;;;5.80;99.90;;;;;;5074857;28;20454;-70
2022/02/08 04:52:46;;;;;;;5.87;2.73;;;5.80;99.90;;;;;;5078066;28;20421;-69
2022/02/08 04:55:33;;;;;;;6.30;2.83;;;5.90;99.90;;;;;;5077053;28;20429;-69
2022/02/08 05:00:38;;;;;;;6.97;3.20;;;5.90;99.90;;;;;;5076002;28;20505;-69
2022/02/08 05:48:51;;;;;;;5.00;2.57;;;6.10;99.90;;;;;;5074538;28;20436;-70
2022/02/08 05:51:21;;;;;;;7.07;2.60;;;6.10;99.90;;;;;;5077388;28;20455;-70
2022/02/08 05:53:47;;;;;;;6.70;2.90;;;6.10;99.90;;;;;;5076903;28;20607;-70
2022/02/08 05:56:14;;;;;;;5.17;2.70;;;6.20;99.90;;;;;;5075007;28;20486;-69
2022/02/08 05:58:43;;;;;;;8.13;2.67;;;6.10;99.90;;;;;;5073699;28;20437;-70
2022/02/08 06:01:09;;;;;;;6.03;2.27;;;6.10;99.90;;;;;;5074447;28;20444;-71
2022/02/08 06:03:34;;;;;;;5.20;2.80;;;6.10;99.90;;;;;;5074482;28;20428;-70
2022/02/08 06:06:00;;;;;;;8.20;2.63;;;6.10;99.90;;;;;;5073597;28;20428;-69
2022/02/08 06:08:26;;;;;;;3.90;2.20;;;6.10;99.90;;;;;;5075598;28;20189;-69
2022/02/08 06:11:01;;;;;;;6.43;2.53;;;6.10;99.90;;;;;;5073993;28;20695;-69
2022/02/08 06:13:27;;;;;;;8.00;2.53;;;6.10;99.90;;;;;;5076691;28;20489;-70
2022/02/08 06:16:00;;;;;;;3.83;2.27;;;6.10;99.90;;;;;;5071473;28;20422;-70
2022/02/08 06:18:30;;;;;;;2.50;1.80;;;6.20;99.90;;;;;;5076769;28;20439;-70
2022/02/08 06:20:59;;;;;;;7.13;2.83;;;6.20;99.90;;;;;;5069614;28;20977;-71
2022/02/08 06:23:25;;;;;;;7.87;3.83;;;6.10;99.90;;;;;;5074447;28;20522;-69
2022/02/08 06:25:51;;;;;;;11.13;3.10;;;6.20;99.90;;;;;;5071326;28;20644;-69
2022/02/08 06:28:17;;;;;;;4.70;2.60;;;6.20;99.90;;;;;;5074719;28;20425;-70
2022/02/08 06:30:45;;;;;;;8.30;2.47;;;6.20;99.90;;;;;;5073959;28;20252;-70
2022/02/08 06:33:13;;;;;;;4.73;2.20;;;6.10;99.90;;;;;;5074609;28;20429;-69
2022/02/08 06:35:39;;;;;;;4.57;3.40;;;6.10;99.90;;;;;;5073248;28;20500;-69
2022/02/08 06:38:08;;;;;;;6.33;2.20;;;6.20;99.90;;;;;;5073364;28;20469;-70
2022/02/08 06:40:36;;;;;;;8.67;2.53;;;6.20;99.90;;;;;;5075181;28;20883;-69
2022/02/08 06:43:03;;;;;;;4.40;2.30;;;6.30;99.90;;;;;;5071735;28;20443;-69
2022/02/08 06:45:29;;;;;;;5.00;2.77;;;6.30;99.90;;;;;;5073442;28;20516;-69
2022/02/08 06:47:55;;;;;;;6.33;2.23;;;6.30;99.90;;;;;;5076607;28;20515;-69
2022/02/08 06:50:20;;;;;;;4.33;2.20;;;6.30;99.90;;;;;;5068362;28;20226;-69
2022/02/08 06:52:47;;;;;;;5.43;1.90;;;6.30;99.90;;;;;;5075518;28;20171;-68
2022/02/08 06:55:13;;;;;;;6.50;2.10;;;6.30;99.90;;;;;;5076866;28;20256;-69
2022/02/08 06:58:30;;;;;;;6.37;2.30;;;6.40;99.90;;;;;;5075187;28;20456;-70
2022/02/08 07:00:31;;;;;;;5.90;2.00;;;6.40;99.90;;;;;;5066066;28;20456;-69
2022/02/08 07:02:57;;;;;;;9.07;2.70;;;6.40;99.90;;;;;;5074227;28;20502;-68
2022/02/08 07:05:23;;;;;;;6.13;2.33;;;6.40;99.90;;;;;;5072236;28;20432;-69
2022/02/08 07:07:48;;;;;;;6.93;2.37;;;6.40;99.90;;;;;;5075988;28;20195;-69
2022/02/08 07:10:14;;;;;;;8.03;2.30;;;6.40;99.90;;;;;;5075232;28;20202;-69
2022/02/08 07:12:40;;;;;;;9.60;2.80;;;6.50;99.90;;;;;;5077443;28;20210;-69
2022/02/08 07:15:11;;;;;;;7.30;2.70;;;6.50;99.90;;;;;;5078302;28;20187;-70
2022/02/08 07:17:37;;;;;;;7.00;3.10;;;6.50;99.90;;;;;;5074279;28;20531;-70
2022/02/08 07:20:04;;;;;;;7.00;2.53;;;6.50;99.90;;;;;;5074539;28;20551;-70
2022/02/08 07:22:31;;;;;;;7.00;2.80;;;6.50;99.90;;;;;;5076048;28;20197;-69
2022/02/08 07:24:58;;;;;;;10.80;2.33;;;6.50;99.90;;;;;;5075545;28;21004;-70
2022/02/08 07:27:24;;;;;;;4.87;2.30;;;6.50;99.90;;;;;;5075969;28;20843;-69
2022/02/08 07:29:51;;;;;;;3.10;2.00;;;6.50;99.90;;;;;;5077959;28;20494;-69
2022/02/08 07:32:17;;;;;;;13.83;3.10;;;6.50;99.90;;;;;;5077013;28;20465;-69
2022/02/08 07:34:47;;;;;;;7.03;2.10;;;6.50;99.90;;;;;;5081502;28;21472;-69
2022/02/08 07:37:22;;;;;;;8.10;2.43;;;6.60;99.90;;;;;;5080852;28;20853;-69
2022/02/08 07:39:52;;;;;;;5.73;2.63;;;6.60;99.90;;;;;;5076700;28;20530;-69
2022/02/08 07:42:17;;;;;;;8.53;2.47;;;6.60;99.90;;;;;;5076253;28;20763;-69
2022/02/08 07:44:44;;;;;;;8.10;2.50;;;6.60;99.90;;;;;;5078366;28;20490;-69
2022/02/08 07:47:10;;;;;;;6.67;3.53;;;6.70;99.90;;;;;;5077362;28;20643;-70
2022/02/08 07:49:39;;;;;;;6.57;2.60;;;6.70;99.90;;;;;;5076689;28;20433;-69
2022/02/08 07:52:05;;;;;;;4.70;2.90;;;6.70;99.90;;;;;;5077297;28;20216;-69
2022/02/08 07:54:31;;;;;;;5.10;2.20;;;6.70;99.90;;;;;;5074126;28;20428;-69
2022/02/08 07:56:56;;;;;;;7.13;2.40;;;6.60;99.90;;;;;;5074688;28;20437;-69
2022/02/08 07:59:22;;;;;;;3.80;2.37;;;6.60;99.90;;;;;;5075673;28;20220;-69
2022/02/08 08:01:48;;;;;;;5.17;2.23;;;6.60;99.90;;;;;;5079050;28;20275;-68
2022/02/08 08:04:13;;;;;;;2.80;1.90;;;6.60;99.90;;;;;;5077735;28;20186;-68
2022/02/08 08:06:39;;;;;;;4.10;2.30;;;6.60;99.90;;;;;;5080330;28;20247;-68
2022/02/08 08:09:05;;;;;;;9.00;2.60;;;6.70;99.90;;;;;;5076041;28;20187;-69
2022/02/08 08:11:43;;;;;;;9.00;2.90;;;6.70;99.90;;;;;;5074430;28;20476;-69
2022/02/08 08:14:12;;;;;;;8.43;2.20;;;6.70;99.90;;;;;;5073528;28;20907;-68
2022/02/08 08:17:54;;;;;;;8.73;2.67;;;6.70;99.90;;;;;;5068462;28;20895;-70
2022/02/08 08:19:38;;;;;;;10.30;2.60;;;6.70;99.90;;;;;;5059953;28;20538;-68
2022/02/08 08:22:09;;;;;;;4.80;1.83;;;6.80;99.90;;;;;;5072512;28;20444;-68
2022/02/08 08:24:35;;;;;;;10.10;2.47;;;6.80;99.90;;;;;;5074200;28;20447;-67
2022/02/08 08:27:00;;;;;;;6.13;3.07;;;6.80;99.90;;;;;;5071746;28;20516;-66
2022/02/08 08:29:26;;;;;;;4.77;2.30;;;6.80;99.90;;;;;;5075399;28;20533;-67
2022/02/08 08:31:52;;;;;;;5.30;1.70;;;6.80;99.90;;;;;;5072951;28;20804;-67
2022/02/08 08:34:18;;;;;;;7.60;3.00;;;6.90;99.90;;;;;;5073935;28;20183;-70
2022/02/08 08:36:46;;;;;;;11.53;2.37;;;6.90;99.90;;;;;;5072531;28;20187;-68
2022/02/08 08:39:12;;;;;;;8.43;2.30;;;7.00;99.90;;;;;;5073016;28;20186;-69
2022/02/08 08:41:48;;;;;;;4.90;2.00;;;7.00;99.90;;;;;;5072978;28;21061;-67
2022/02/08 08:49:35;;;;;;;3.73;2.17;;;7.10;99.90;;;;;;5074086;28;20251;-66
2022/02/08 08:52:01;;;;;;;6.00;2.50;;;7.20;99.90;;;;;;5073898;28;20476;-65
2022/02/08 08:54:27;;;;;;;6.73;2.73;;;7.30;99.90;;;;;;5070526;28;20947;-66
2022/02/08 08:56:52;;;;;;;5.10;2.77;;;7.30;99.90;;;;;;5072513;28;20193;-68
2022/02/08 08:59:20;;;;;;;3.80;2.10;;;7.30;99.90;;;;;;5073319;28;20186;-67
2022/02/08 09:01:48;;;;;;;5.60;2.77;;;7.30;99.90;;;;;;5072587;28;20702;-67
2022/02/08 09:04:18;;;;;;;11.03;2.53;;;7.40;99.90;;;;;;5071375;28;20434;-66
2022/02/08 09:06:45;;;;;;;4.90;2.60;;;7.40;99.90;;;;;;5069916;28;20513;-66
2022/02/08 09:09:14;;;;;;;5.07;2.10;;;7.50;99.90;;;;;;5071559;28;20440;-68
2022/02/08 09:11:53;;;;;;;3.70;2.23;;;7.50;99.90;;;;;;5073980;28;20808;-68
2022/02/08 09:14:24;;;;;;;8.13;2.37;;;7.60;99.90;;;;;;5072449;28;20433;-67
2022/02/08 09:17:14;;;;;;;4.17;1.60;;;7.70;99.90;;;;;;5071585;28;20509;-67
2022/02/08 09:20:05;;;;;;;5.03;1.73;;;7.60;99.90;;;;;;5074242;28;20824;-67
2022/02/08 09:27:49;;;;;;;7.77;2.57;;;7.70;99.90;;;;;;5074305;28;20428;-66
2022/02/08 09:30:17;;;;;;;4.40;2.20;;;7.80;99.90;;;;;;5072879;28;20989;-70
2022/02/08 09:32:48;;;;;;;5.33;2.23;;;7.80;99.90;;;;;;5072522;28;20437;-67
2022/02/08 09:35:15;;;;;;;4.23;2.03;;;7.90;99.90;;;;;;5069566;28;20441;-67
2022/02/08 09:37:41;;;;;;;3.93;1.87;;;7.90;99.90;;;;;;5072023;28;20836;-66
2022/02/08 09:40:09;;;;;;;8.83;2.07;;;8.00;99.90;;;;;;5073660;28;20449;-68
2022/02/08 09:42:39;;;;;;;3.90;2.30;;;8.10;99.90;;;;;;5071362;28;20436;-68
2022/02/08 09:45:06;;;;;;;3.50;1.83;;;8.00;99.90;;;;;;5075846;28;20440;-68
2022/02/08 09:47:42;;;;;;;6.10;2.67;;;8.00;99.90;;;;;;5073749;28;20449;-68
2022/02/08 09:50:16;;;;;;;6.30;2.50;;;8.10;99.90;;;;;;5071972;28;20517;-70
2022/02/08 09:52:47;;;;;;;4.57;2.17;;;8.10;99.90;;;;;;5072555;28;20429;-67
2022/02/08 09:55:14;;;;;;;8.10;2.87;;;8.10;99.90;;;;;;5069894;28;21143;-69
2022/02/08 09:57:40;;;;;;;4.27;2.07;;;8.10;99.90;;;;;;5067475;28;20459;-67
2022/02/08 10:00:06;;;;;;;9.33;2.40;;;8.10;99.90;;;;;;5071241;28;20457;-70
2022/02/08 10:02:32;;;;;;;7.60;2.00;;;8.20;99.90;;;;;;5074979;28;20285;-70
2022/02/08 10:05:01;;;;;;;6.40;2.30;;;8.20;99.90;;;;;;5072078;28;21000;-70
2022/02/08 10:07:28;;;;;;;8.10;2.50;;;8.20;99.90;;;;;;5072790;28;20198;-68
2022/02/08 10:09:54;;;;;;;3.83;1.83;;;8.30;99.90;;;;;;5071274;28;20566;-69
2022/02/08 10:12:23;;;;;;;4.57;2.10;;;8.20;99.90;;;;;;5075859;28;20553;-69
2022/02/08 10:18:59;;;;;;;4.77;2.20;;;8.30;99.90;;;;;;5075799;28;20690;-68
2022/02/08 10:22:51;;;;;;;5.60;2.33;;;8.30;99.90;;;;;;5075501;28;20424;-68
2022/02/08 10:25:44;;;;;;;5.97;2.40;;;8.30;99.90;;;;;;5074193;28;20217;-67
2022/02/08 10:38:45;;;;;;;3.80;2.40;;;8.60;99.90;;;;;;5076943;28;21070;-67
2022/02/08 10:41:21;;;;;;;14.23;2.30;;;8.60;99.90;;;;;;5080211;28;20817;-68
2022/02/08 10:43:57;;;;;;;7.43;2.50;;;8.60;99.90;;;;;;5073982;28;21981;-67
2022/02/08 10:46:23;;;;;;;6.00;2.80;;;8.70;99.90;;;;;;5074514;28;20450;-69
2022/02/08 10:49:09;;;;;;;11.90;2.53;;;8.70;99.90;;;;;;5077908;28;20969;-68
2022/02/08 10:51:53;;;;;;;4.93;2.20;;;8.80;99.90;;;;;;5074957;28;20779;-68
2022/02/08 10:54:37;;;;;;;8.63;2.33;;;8.80;99.90;;;;;;5075993;28;20449;-68
2022/02/08 10:57:11;;;;;;;10.87;2.50;;;8.80;99.90;;;;;;5074522;28;21968;-68
2022/02/08 10:59:48;;;;;;;7.50;2.50;;;8.80;99.90;;;;;;5075877;28;20437;-67
2022/02/08 11:02:22;;;;;;;7.10;2.70;;;8.80;99.90;;;;;;5074786;28;20463;-67
2022/02/08 11:07:23;;;;;;;9.73;2.70;;;8.80;99.90;;;;;;5071880;28;20677;-70
2022/02/08 11:12:55;;;;;;;3.60;2.60;;;8.80;99.90;;;;;;5072636;28;20479;-70
2022/02/08 11:15:49;;;;;;;6.13;2.47;;;8.90;99.90;;;;;;5079357;28;20437;-71
2022/02/08 11:18:43;;;;;;;4.03;2.33;;;8.80;99.90;;;;;;5080288;28;20433;-70
2022/02/08 11:21:30;;;;;;;8.10;2.90;;;8.80;99.90;;;;;;5078753;28;20466;-70
2022/02/08 11:26:44;;;;;;;8.80;2.80;;;8.70;99.90;;;;;;5077590;28;20972;-67
2022/02/08 11:29:13;;;;;;;8.60;2.40;;;8.70;99.90;;;;;;5075153;28;20187;-68
2022/02/08 11:31:44;;;;;;;7.17;2.57;;;8.80;99.90;;;;;;5076843;28;20837;-68
2022/02/08 11:45:37;;;;;;;6.73;2.50;;;8.60;99.90;;;;;;5078017;28;21000;-67
2022/02/08 11:56:00;;;;;;;9.63;2.57;;;8.70;99.90;;;;;;5070989;28;20682;-66
2022/02/08 11:58:39;;;;;;;9.20;2.80;;;8.70;99.90;;;;;;5072743;28;20519;-69
2022/02/08 12:01:15;;;;;;;8.53;2.63;;;8.70;99.90;;;;;;5074369;28;20457;-68
2022/02/08 12:04:09;;;;;;;8.93;2.70;;;8.70;99.90;;;;;;5075490;28;20455;-68
2022/02/08 12:09:12;;;;;;;7.83;2.90;;;8.80;99.90;;;;;;5075436;28;20444;-68
2022/02/08 12:51:17;;;;;;;12.70;2.93;;;9.00;99.90;;;;;;5052659;28;20732;-67
2022/02/08 12:53:48;;;;;;;6.80;3.00;;;9.00;99.90;;;;;;5072455;28;21018;-67
2022/02/08 14:06:59;;;;;;;5.30;2.57;;;9.80;99.90;;;;;;5076447;28;20428;-69
2022/02/08 14:12:26;;;;;;;6.03;2.90;;;9.90;99.90;;;;;;5075494;28;20847;-69
2022/02/08 14:23:09;;;;;;;5.23;2.40;;;10.20;99.90;;;;;;5074991;28;20946;-67
2022/02/08 14:25:44;;;;;;;5.20;2.87;;;10.30;99.90;;;;;;5074629;28;20743;-69
2022/02/08 14:31:25;;;;;;;7.50;2.87;;;10.20;99.90;;;;;;5072670;28;20510;-68
2022/02/08 14:34:13;;;;;;;7.77;3.30;;;10.10;99.90;;;;;;5077185;28;20814;-67
2022/02/08 15:08:48;;;;;;;12.50;3.63;;;9.80;99.90;;;;;;5074796;28;20937;-68
2022/02/08 15:11:13;;;;;;;7.03;3.20;;;9.90;99.90;;;;;;5074961;28;20461;-69
2022/02/08 15:13:48;;;;;;;5.50;2.77;;;9.90;99.90;;;;;;5074029;28;21020;-68
2022/02/08 15:18:40;;;;;;;11.73;3.40;;;9.90;99.90;;;;;;5078661;28;21006;-69
2022/02/08 15:21:11;;;;;;;5.07;2.77;;;9.80;99.90;;;;;;5073657;28;20467;-68
2022/02/08 15:23:37;;;;;;;6.93;2.97;;;9.80;99.90;;;;;;5077817;28;20813;-69
2022/02/08 15:26:05;;;;;;;6.37;2.97;;;9.80;99.90;;;;;;5071620;28;20476;-69
2022/02/08 15:28:30;;;;;;;7.27;2.70;;;9.70;99.90;;;;;;5075543;28;20428;-70
2022/02/08 15:30:57;;;;;;;10.80;3.43;;;9.60;99.90;;;;;;5068567;28;20479;-69
2022/02/08 15:33:24;;;;;;;5.47;2.77;;;9.70;99.90;;;;;;5075621;28;20190;-70
2022/02/08 15:35:50;;;;;;;8.60;3.30;;;9.70;99.90;;;;;;5073069;28;20842;-68
2022/02/08 15:38:16;;;;;;;8.30;2.83;;;9.80;99.90;;;;;;5075038;28;20809;-69
2022/02/08 15:40:42;;;;;;;7.10;2.90;;;9.80;99.90;;;;;;5075755;28;20452;-69
2022/02/08 15:43:09;;;;;;;3.67;2.20;;;9.80;99.90;;;;;;5074032;28;20190;-69
2022/02/08 15:45:44;;;;;;;6.53;2.33;;;9.80;99.90;;;;;;5076606;28;20183;-67
2022/02/08 15:48:13;;;;;;;3.93;2.60;;;9.80;99.90;;;;;;5075738;28;20870;-67
2022/02/08 15:55:50;;;;;;;5.70;2.60;;;9.90;99.90;;;;;;5077007;28;20189;-70
2022/02/08 15:58:23;;;;;;;6.13;2.70;;;9.90;99.90;;;;;;5072327;28;20228;-70
2022/02/08 16:08:54;;;;;;;9.13;3.33;;;9.90;99.90;;;;;;5073686;28;20629;-68
2022/02/08 16:13:59;;;;;;;5.90;3.13;;;9.80;99.90;;;;;;5073875;28;21220;-69
2022/02/08 16:22:21;;;;;;;10.03;3.50;;;9.70;99.90;;;;;;5036491;28;20517;-70
2022/02/08 16:30:36;;;;;;;8.23;3.20;;;9.60;99.90;;;;;;5073225;28;20447;-68
2022/02/08 16:49:24;;;;;;;9.20;4.50;;;9.60;99.90;;;;;;5072099;28;20452;-71
2022/02/08 16:59:16;;;;;;;10.43;3.47;;;9.70;99.90;;;;;;5075188;28;20448;-68
2022/02/08 17:01:42;;;;;;;9.73;3.50;;;9.60;99.90;;;;;;5072730;28;20211;-69
2022/02/08 17:04:09;;;;;;;7.57;3.30;;;9.60;99.90;;;;;;5076411;28;21032;-70
2022/02/08 17:06:34;;;;;;;12.00;4.20;;;9.60;99.90;;;;;;5076672;28;20927;-69
2022/02/08 17:09:10;;;;;;;10.13;4.40;;;9.70;99.90;;;;;;5070908;28;20440;-68
2022/02/08 17:11:44;;;;;;;5.67;3.53;;;9.70;99.90;;;;;;5075030;28;20222;-69
2022/02/08 17:44:59;;;;;;;8.27;3.60;;;9.70;99.90;;;;;;5071645;28;20467;-67
2022/02/08 17:46:34;;;;;;;5.80;4.00;;;9.60;99.90;;;;;;5075049;28;20944;-68
2022/02/08 17:49:00;;;;;;;10.03;4.20;;;9.70;99.90;;;;;;5071761;28;20517;-70
2022/02/08 17:51:25;;;;;;;9.27;3.67;;;9.70;99.90;;;;;;5072635;28;20539;-68
2022/02/08 17:53:51;;;;;;;6.80;3.73;;;9.70;99.90;;;;;;5073290;28;20195;-68
2022/02/08 17:56:16;;;;;;;9.13;3.40;;;9.70;99.90;;;;;;5073804;28;20189;-68
2022/02/08 17:58:44;;;;;;;12.90;4.60;;;9.70;99.90;;;;;;5072339;28;20624;-67
2022/02/08 18:01:09;;;;;;;6.27;3.70;;;9.80;99.90;;;;;;5072929;28;20650;-67
2022/02/08 18:03:35;;;;;;;17.10;4.10;;;9.80;99.90;;;;;;5074263;28;20439;-67
2022/02/08 18:06:01;;;;;;;6.00;3.93;;;9.80;99.90;;;;;;5074914;28;20644;-68
2022/02/08 18:08:27;;;;;;;6.97;4.10;;;9.80;99.90;;;;;;5072899;28;20193;-69
2022/02/08 18:10:56;;;;;;;11.87;4.80;;;9.70;99.90;;;;;;5074590;28;20253;-68
2022/02/08 18:13:28;;;;;;;13.30;4.53;;;9.80;99.90;;;;;;5070101;28;20442;-67
2022/02/08 18:15:54;;;;;;;10.13;4.40;;;9.70;99.90;;;;;;5074919;28;20422;-67
2022/02/08 18:18:29;;;;;;;14.10;3.77;;;9.70;99.90;;;;;;5072750;28;21006;-67
2022/02/08 18:21:20;;;;;;;6.73;3.20;;;9.70;99.90;;;;;;5069712;28;20272;-72
2022/02/08 18:24:23;;;;;;;5.77;3.40;;;9.70;99.90;;;;;;5066783;28;20987;-68
2022/02/08 19:07:24;;;;;;;3.77;2.33;;;9.60;99.90;;;;;;5076605;28;20425;-69
2022/02/08 19:10:13;;;;;;;2.90;2.20;;;9.60;99.90;;;;;;5073341;28;20436;-68
2022/02/08 19:12:53;;;;;;;6.00;2.57;;;9.60;99.90;;;;;;5072793;28;20895;-68
2022/02/08 19:18:29;;;;;;;3.90;2.57;;;9.50;99.90;;;;;;5073166;28;20531;-69
2022/02/08 19:21:20;;;;;;;2.67;1.97;;;9.50;99.90;;;;;;5071003;28;20479;-68
2022/02/08 19:23:45;;;;;;;7.60;2.37;;;9.50;99.90;;;;;;5073535;28;20516;-69
2022/02/08 19:26:12;;;;;;;4.40;2.57;;;9.60;99.90;;;;;;5070871;28;21020;-69
2022/02/08 19:28:37;;;;;;;4.20;2.77;;;9.50;99.90;;;;;;5069955;28;20501;-68
2022/02/08 19:31:03;;;;;;;3.37;2.70;;;9.50;99.90;;;;;;5068602;28;20494;-68
2022/02/08 19:33:32;;;;;;;4.60;2.27;;;9.50;99.90;;;;;;5074230;28;20190;-69
2022/02/08 19:35:58;;;;;;;4.87;2.73;;;9.50;99.90;;;;;;5075774;28;20474;-68
2022/02/08 19:38:26;;;;;;;3.73;3.20;;;9.50;99.90;;;;;;5074141;28;21273;-68
2022/02/08 19:40:53;;;;;;;8.20;4.27;;;9.50;99.90;;;;;;5072905;28;20665;-68
2022/02/08 19:43:20;;;;;;;4.43;3.43;;;9.50;99.90;;;;;;5070874;28;20445;-69
2022/02/08 19:45:46;;;;;;;5.40;4.03;;;9.50;99.90;;;;;;5071886;28;20435;-69
2022/02/08 19:48:13;;;;;;;5.73;4.40;;;9.50;99.90;;;;;;5074535;28;20437;-68
2022/02/08 19:50:40;;;;;;;3.60;3.10;;;9.50;99.90;;;;;;5074547;28;20464;-68
2022/02/08 19:53:07;;;;;;;7.23;3.10;;;9.50;99.90;;;;;;5076190;28;20437;-68
2022/02/08 19:58:19;;;;;;;5.73;3.40;;;9.50;99.90;;;;;;5075712;28;20803;-70
2022/02/08 20:00:54;;;;;;;3.80;2.90;;;9.50;99.90;;;;;;5076471;28;20544;-69
2022/02/08 20:03:20;;;;;;;3.27;2.50;;;9.50;99.90;;;;;;5076999;28;20520;-69
2022/02/08 20:05:47;;;;;;;3.33;2.57;;;9.60;99.90;;;;;;5073698;28;20519;-68
2022/02/08 20:08:12;;;;;;;4.60;3.30;;;9.60;99.90;;;;;;5075600;28;20187;-69
2022/02/08 20:10:38;;;;;;;3.50;2.50;;;9.70;99.90;;;;;;5074245;28;21466;-69
2022/02/08 20:13:03;;;;;;;4.10;2.43;;;9.80;99.90;;;;;;5069896;28;20557;-68
2022/02/08 20:15:29;;;;;;;5.17;3.13;;;9.80;99.90;;;;;;5075753;28;20209;-69
2022/02/08 20:17:55;;;;;;;4.07;3.07;;;9.80;99.90;;;;;;5074582;28;22048;-69
2022/02/08 20:20:24;;;;;;;3.10;2.70;;;9.80;99.90;;;;;;5075789;28;20303;-69
2022/02/08 20:22:57;;;;;;;6.03;2.50;;;9.70;99.90;;;;;;5075778;28;20207;-69
2022/02/08 20:25:24;;;;;;;3.70;2.60;;;9.70;99.90;;;;;;5076711;28;20466;-69
2022/02/08 20:28:02;;;;;;;4.07;3.20;;;9.80;99.90;;;;;;5077881;28;20468;-70
2022/02/08 20:30:29;;;;;;;4.07;2.97;;;9.80;99.90;;;;;;5071613;28;20498;-70
2022/02/08 20:32:55;;;;;;;3.70;3.00;;;9.80;99.90;;;;;;5074037;28;20463;-69
2022/02/08 20:35:21;;;;;;;3.70;2.40;;;9.80;99.90;;;;;;5077608;28;20464;-69
2022/02/08 20:37:48;;;;;;;6.30;4.10;;;9.80;99.90;;;;;;5073975;28;20536;-70